createdAt,value
2023-05-19T08:32:05.766Z,3.15
2023-05-19T08:35:08.429Z,3.28
2023-05-19T08:38:09.969Z,3.83
2023-05-19T08:41:11.490Z,3.10
2023-05-19T08:44:13.108Z,3.20
2023-05-19T08:47:15.342Z,3.63
2023-05-19T08:50:21.332Z,3.17
2023-05-19T08:53:34.926Z,3.75
2023-05-19T08:56:38.043Z,3.35
2023-05-19T08:59:41.689Z,3.57
2023-05-19T09:02:50.783Z,3.47
2023-05-19T09:06:02.736Z,3.75
2023-05-19T09:09:04.452Z,3.40
2023-05-19T09:12:06.414Z,3.42
2023-05-19T09:15:09.843Z,3.40
2023-05-19T09:18:13.004Z,3.50
2023-05-19T09:21:14.737Z,3.83
2023-05-19T09:24:16.676Z,3.35
2023-05-19T09:27:23.248Z,3.60
2023-05-19T09:30:24.914Z,3.33
2023-05-19T09:33:26.996Z,3.92
2023-05-19T09:36:29.862Z,3.83
2023-05-19T09:39:32.731Z,4.15
2023-05-19T09:42:37.309Z,3.75
2023-05-19T09:45:38.791Z,3.63
2023-05-19T09:48:40.335Z,4.00
2023-05-19T09:51:41.923Z,3.58
2023-05-19T09:54:43.518Z,3.47
2023-05-19T09:57:45.294Z,3.80
2023-05-19T10:00:47.761Z,3.30
2023-05-19T10:03:49.567Z,3.78
2023-05-19T10:06:54.038Z,3.90
2023-05-19T10:09:57.944Z,4.25
2023-05-19T10:13:01.207Z,3.45
2023-05-19T10:16:06.041Z,3.83
2023-05-19T10:19:09.022Z,3.47
2023-05-19T10:22:10.979Z,3.92
2023-05-19T10:25:15.197Z,3.78
2023-05-19T10:28:21.141Z,3.70
2023-05-19T10:31:24.340Z,3.53
2023-05-19T10:34:50.547Z,3.80
2023-05-19T10:37:58.089Z,3.80
2023-05-19T10:41:24.411Z,3.80
2023-05-19T10:44:49.203Z,3.53
2023-05-19T10:47:51.653Z,4.10
2023-05-19T10:50:54.999Z,3.78
2023-05-19T10:53:58.677Z,4.43
2023-05-19T10:57:00.653Z,4.35
2023-05-19T11:00:28.210Z,4.13
2023-05-19T11:06:36.419Z,4.25
2023-05-19T11:09:41.260Z,3.80
2023-05-19T11:12:45.543Z,4.60
2023-05-19T11:15:47.062Z,3.72
2023-05-19T11:18:50.480Z,3.70
2023-05-19T11:21:55.011Z,3.92
2023-05-19T11:24:57.432Z,4.03
2023-05-19T11:27:59.934Z,3.90
2023-05-19T11:31:02.515Z,4.32
2023-05-19T11:34:06.783Z,5.70
2023-05-19T11:37:09.146Z,6.05
2023-05-19T11:40:13.757Z,6.55
2023-05-19T11:43:16.720Z,3.80
2023-05-19T11:46:18.473Z,3.97
2023-05-19T11:49:20.133Z,4.00
2023-05-19T11:52:23.209Z,3.95
2023-05-19T11:55:24.879Z,4.30
2023-05-19T11:58:37.045Z,10.90
2023-05-19T12:01:38.643Z,5.65
2023-05-19T12:04:40.199Z,4.28
2023-05-19T12:07:43.203Z,4.13
2023-05-19T12:10:48.983Z,4.00
2023-05-19T12:13:54.504Z,3.75
2023-05-19T12:16:56.212Z,4.07
2023-05-19T12:19:58.322Z,4.32
2023-05-19T12:23:01.112Z,4.45
2023-05-19T12:26:02.798Z,4.20
2023-05-19T12:29:06.601Z,3.50
2023-05-19T12:32:09.368Z,4.13
2023-05-19T12:35:11.614Z,4.68
2023-05-19T12:38:14.408Z,4.22
2023-05-19T12:41:17.369Z,4.25
2023-05-19T12:44:18.836Z,4.07
2023-05-19T12:47:21.078Z,4.15
2023-05-19T12:50:30.048Z,4.13
2023-05-19T12:53:33.195Z,4.50
2023-05-19T12:56:34.705Z,4.22
2023-05-19T12:59:38.818Z,4.88
2023-05-19T13:02:57.570Z,4.80
2023-05-19T13:05:59.811Z,5.65
2023-05-19T13:09:01.426Z,4.25
2023-05-19T13:12:04.717Z,4.90
2023-05-19T13:15:07.090Z,4.90
2023-05-19T13:18:10.570Z,4.55
2023-05-19T13:21:12.164Z,4.95
2023-05-19T13:24:13.994Z,4.57
2023-05-19T13:27:15.856Z,4.50
2023-05-19T13:30:18.355Z,4.53
2023-05-19T13:33:19.870Z,4.75
2023-05-19T13:36:21.558Z,4.75
2023-05-19T13:39:23.104Z,4.78
2023-05-19T13:42:24.712Z,4.55
2023-05-19T13:45:26.561Z,5.30
2023-05-19T13:48:28.094Z,4.80
2023-05-19T13:51:29.627Z,5.25
2023-05-19T13:54:31.183Z,5.13
2023-05-19T13:57:33.119Z,4.97
2023-05-19T14:00:36.336Z,5.15
2023-05-19T14:03:38.128Z,5.57
2023-05-19T14:06:39.856Z,5.03
2023-05-19T14:09:41.341Z,4.65
2023-05-19T14:13:06.454Z,6.30
2023-05-19T14:16:05.179Z,6.88
2023-05-19T14:19:07.112Z,5.47
2023-05-19T14:22:08.863Z,4.80
2023-05-19T14:25:10.603Z,4.85
2023-05-19T14:28:12.210Z,5.22
2023-05-19T14:31:14.805Z,5.45
2023-05-19T14:34:17.953Z,4.70
2023-05-19T14:37:20.207Z,4.80
2023-05-19T14:40:21.772Z,5.00
2023-05-19T14:43:23.355Z,7.70
2023-05-19T14:46:25.016Z,5.15
2023-05-19T14:49:26.569Z,5.20
2023-05-19T14:52:28.040Z,5.60
2023-05-19T14:55:29.700Z,5.07
2023-05-19T14:58:31.250Z,4.93
2023-05-19T15:01:32.831Z,5.18
2023-05-19T15:04:34.339Z,5.60
2023-05-19T15:07:36.128Z,5.50
2023-05-19T15:10:37.699Z,5.53
2023-05-19T15:13:39.229Z,5.65
2023-05-19T15:16:40.841Z,5.18
2023-05-19T15:19:42.995Z,5.53
2023-05-19T15:22:44.529Z,5.43
2023-05-19T15:25:46.084Z,5.30
2023-05-19T15:28:47.625Z,5.63
2023-05-19T15:31:52.557Z,5.43
2023-05-19T15:34:54.123Z,4.95
2023-05-19T15:37:55.691Z,5.10
2023-05-19T15:40:57.226Z,5.55
2023-05-19T15:44:02.486Z,5.93
2023-05-19T15:47:04.120Z,5.65
2023-05-19T15:50:06.148Z,6.50
2023-05-19T15:53:08.870Z,5.57
2023-05-19T15:56:10.702Z,6.25
2023-05-19T15:59:12.266Z,6.30
2023-05-19T16:02:21.391Z,6.38
2023-05-19T16:05:23.105Z,6.38
2023-05-19T16:08:25.079Z,6.38
2023-05-19T16:11:26.836Z,6.75
2023-05-19T16:14:31.944Z,6.50
2023-05-19T16:17:33.610Z,6.60
2023-05-19T16:20:35.457Z,6.25
2023-05-19T16:23:37.160Z,5.32
2023-05-19T16:26:39.038Z,6.28
2023-05-19T16:29:40.988Z,6.93
2023-05-19T16:32:42.956Z,5.93
2023-05-19T16:35:44.533Z,6.00
2023-05-19T16:38:46.123Z,6.40
2023-05-19T16:41:47.594Z,5.85
2023-05-19T16:44:49.135Z,6.95
2023-05-19T16:47:50.745Z,6.95
2023-05-19T16:50:52.365Z,5.75
2023-05-19T16:53:53.844Z,5.82
2023-05-19T16:56:55.426Z,5.88
2023-05-19T16:59:57.036Z,5.45
2023-05-19T17:02:58.697Z,5.30
2023-05-19T17:06:00.944Z,5.10
2023-05-19T17:09:02.606Z,6.05
2023-05-19T17:12:04.498Z,5.30
2023-05-19T17:15:06.526Z,7.50
2023-05-19T17:18:08.102Z,5.82
2023-05-19T17:21:09.757Z,5.82
2023-05-19T17:24:11.375Z,7.00
2023-05-19T17:27:12.954Z,6.38
2023-05-19T17:30:14.511Z,6.00
2023-05-19T17:33:16.056Z,5.88
2023-05-19T17:36:17.618Z,6.22
2023-05-19T17:39:20.149Z,6.57
2023-05-19T17:42:21.683Z,5.78
2023-05-19T17:45:23.157Z,5.78
2023-05-19T17:48:25.872Z,5.68
2023-05-19T17:51:28.030Z,5.47
2023-05-19T17:54:29.782Z,6.47
2023-05-19T17:57:33.478Z,6.38
2023-05-19T18:00:35.428Z,6.25
2023-05-19T18:03:37.506Z,5.65
2023-05-19T18:06:43.193Z,5.68
2023-05-19T18:09:50.548Z,5.72
2023-05-19T18:12:52.084Z,6.65
2023-05-19T18:15:53.663Z,6.95
2023-05-19T18:18:55.218Z,6.00
2023-05-19T18:21:56.734Z,6.00
2023-05-19T18:24:58.412Z,6.30
2023-05-19T18:27:59.907Z,5.60
2023-05-19T18:31:03.609Z,6.25
2023-05-19T18:34:05.148Z,6.45
2023-05-19T18:37:06.826Z,6.65
2023-05-19T18:40:08.860Z,7.38
2023-05-19T18:43:10.386Z,6.75
2023-05-19T18:46:13.328Z,6.55
2023-05-19T18:49:15.699Z,7.33
2023-05-19T18:52:18.959Z,7.00
2023-05-19T18:55:20.632Z,7.40
2023-05-19T18:58:22.247Z,6.80
2023-05-19T19:01:23.981Z,7.03
2023-05-19T19:04:25.614Z,7.40
2023-05-19T19:07:27.790Z,7.63
2023-05-19T19:10:29.709Z,7.10
2023-05-19T19:13:31.222Z,8.30
2023-05-19T19:16:33.954Z,6.75
2023-05-19T19:19:35.722Z,7.32
2023-05-19T19:22:37.263Z,8.50
2023-05-19T19:25:38.753Z,7.20
2023-05-19T19:28:40.404Z,7.18
2023-05-19T19:31:42.148Z,7.05
2023-05-19T19:34:43.694Z,7.53
2023-05-19T19:37:46.879Z,8.10
2023-05-19T19:40:51.357Z,7.40
2023-05-19T19:43:53.150Z,8.93
2023-05-19T19:46:54.860Z,7.97
2023-05-19T19:49:56.481Z,7.88
2023-05-19T19:52:58.257Z,7.05
2023-05-19T19:56:01.395Z,7.47
2023-05-19T19:59:03.069Z,6.93
2023-05-19T20:02:04.798Z,6.45
2023-05-19T20:05:06.952Z,7.57
2023-05-19T20:08:08.537Z,6.50
2023-05-19T20:11:10.144Z,6.68
2023-05-19T20:14:11.653Z,7.47
2023-05-19T20:17:13.317Z,7.03
2023-05-19T20:20:14.944Z,7.63
2023-05-19T20:23:16.631Z,7.32
2023-05-19T20:26:18.396Z,6.45
2023-05-19T20:29:20.062Z,7.28
2023-05-19T20:32:21.616Z,8.32
2023-05-19T20:35:23.643Z,8.60
2023-05-19T20:38:25.402Z,7.25
2023-05-19T20:41:27.465Z,7.32
2023-05-19T20:44:29.101Z,7.70
2023-05-19T20:47:30.908Z,7.07
2023-05-19T20:50:32.592Z,6.80
2023-05-19T20:53:34.343Z,7.97
2023-05-19T20:56:35.940Z,6.70
2023-05-19T20:59:37.872Z,6.68
2023-05-19T21:02:43.588Z,7.50
2023-05-19T21:05:45.994Z,7.18
2023-05-19T21:08:47.504Z,7.80
2023-05-19T21:11:49.020Z,7.05
2023-05-19T21:14:51.526Z,6.47
2023-05-19T21:17:53.059Z,7.57
2023-05-19T21:20:54.613Z,7.88
2023-05-19T21:23:56.685Z,7.45
2023-05-19T21:26:58.197Z,7.65
2023-05-19T21:30:00.013Z,7.40
2023-05-19T21:33:01.704Z,7.28
2023-05-19T21:36:03.383Z,6.85
2023-05-19T21:39:04.879Z,7.70
2023-05-19T21:42:06.427Z,7.40
2023-05-19T21:45:10.422Z,8.35
2023-05-19T21:48:12.137Z,8.20
2023-05-19T21:51:13.717Z,7.57
2023-05-19T21:54:15.730Z,7.50
2023-05-19T21:57:17.842Z,7.88
2023-05-19T22:00:19.394Z,7.65
2023-05-19T22:03:21.854Z,7.75
2023-05-19T22:06:23.597Z,8.07
2023-05-19T22:09:25.518Z,8.55
2023-05-19T22:12:27.036Z,8.23
2023-05-19T22:15:28.573Z,7.72
2023-05-19T22:18:30.126Z,8.02
2023-05-19T22:21:32.006Z,7.65
2023-05-19T22:24:33.580Z,8.43
2023-05-19T22:27:35.195Z,8.95
2023-05-19T22:30:40.046Z,9.07
2023-05-19T22:33:42.620Z,8.55
2023-05-19T22:36:45.964Z,8.73
2023-05-19T22:39:50.556Z,7.50
2023-05-19T22:42:52.312Z,8.20
2023-05-19T22:45:53.814Z,7.75
2023-05-19T22:48:55.343Z,7.45
2023-05-19T22:51:56.845Z,7.85
2023-05-19T22:54:58.361Z,7.93
2023-05-19T22:57:59.902Z,7.82
2023-05-19T23:01:01.569Z,7.68
2023-05-19T23:04:03.658Z,7.65
2023-05-19T23:07:05.337Z,6.95
2023-05-19T23:10:07.517Z,8.52
2023-05-19T23:13:10.184Z,6.97
2023-05-19T23:16:11.651Z,8.10
2023-05-19T23:19:13.308Z,7.35
2023-05-19T23:22:14.870Z,7.00
2023-05-19T23:25:16.461Z,8.82
2023-05-19T23:28:18.127Z,8.70
2023-05-19T23:31:19.713Z,8.60
2023-05-19T23:34:21.305Z,8.52
2023-05-19T23:37:22.919Z,8.57
2023-05-19T23:40:24.467Z,8.88
2023-05-19T23:43:26.051Z,8.48
2023-05-19T23:46:27.663Z,8.48
2023-05-19T23:49:29.275Z,8.65
2023-05-19T23:52:31.760Z,8.13
2023-05-19T23:55:33.972Z,8.32
2023-05-19T23:58:35.708Z,8.05
